Time;durP1;ratioP1;P1;durP2;ratioP2;P2;SDS_P1;SDS_P2;PMS_P1;PMS_P2;Temp;Humidity;BMP_temperature;BMP_pressure;BME280_temperature;BME280_humidity;BME280_pressure;Samples;Min_cycle;Max_cycle;Signal;HPM_P1;HPM_P2
2023/07/31 00:01:20;;;;;;;870.33;811.73;;;16.30;99.90;;;;;;4992612;28;20461;-64
2023/07/31 00:03:47;;;;;;;863.33;804.60;;;16.30;99.90;;;;;;4992406;28;20454;-65
2023/07/31 00:06:14;;;;;;;854.63;797.60;;;16.30;99.90;;;;;;4978069;28;20547;-64
2023/07/31 00:08:42;;;;;;;871.27;811.23;;;16.30;99.90;;;;;;4972898;28;20459;-65
2023/07/31 00:11:09;;;;;;;865.50;806.77;;;16.30;99.90;;;;;;4972862;28;20459;-65
2023/07/31 00:13:35;;;;;;;855.50;799.10;;;16.30;99.90;;;;;;4973038;28;20456;-64
2023/07/31 00:16:02;;;;;;;855.93;798.27;;;16.30;99.90;;;;;;4972775;28;20518;-65
2023/07/31 00:18:29;;;;;;;835.00;782.30;;;16.30;99.90;;;;;;4972773;28;20475;-65
2023/07/31 00:20:56;;;;;;;839.30;787.30;;;16.30;99.90;;;;;;4973674;28;20469;-65
2023/07/31 00:23:23;;;;;;;840.30;787.73;;;16.30;99.90;;;;;;4973363;28;20542;-65
2023/07/31 00:25:51;;;;;;;846.87;794.87;;;16.30;99.90;;;;;;4976849;28;20451;-65
2023/07/31 00:28:18;;;;;;;859.67;804.73;;;16.40;99.90;;;;;;4976427;28;20530;-65
2023/07/31 00:30:45;;;;;;;840.17;788.33;;;16.30;99.90;;;;;;4976390;28;20498;-65
2023/07/31 00:33:12;;;;;;;838.70;787.50;;;16.30;99.90;;;;;;4976170;28;20969;-65
2023/07/31 00:35:38;;;;;;;830.63;781.93;;;16.40;99.90;;;;;;4976083;28;20483;-65
2023/07/31 00:38:05;;;;;;;813.83;768.63;;;16.40;99.90;;;;;;4977372;28;20454;-65
2023/07/31 00:40:36;;;;;;;783.53;742.10;;;16.40;99.90;;;;;;4975877;28;20468;-64
2023/07/31 00:43:05;;;;;;;792.33;750.33;;;16.40;99.90;;;;;;4976176;28;20459;-65
2023/07/31 00:45:32;;;;;;;815.30;770.57;;;16.40;99.90;;;;;;4976005;28;20550;-65
2023/07/31 00:47:59;;;;;;;820.57;774.03;;;16.40;99.90;;;;;;4977734;28;20451;-65
2023/07/31 00:50:27;;;;;;;836.60;788.37;;;16.30;99.90;;;;;;4975938;28;20807;-65
2023/07/31 00:52:54;;;;;;;808.97;763.80;;;16.30;99.90;;;;;;4976156;28;20456;-65
2023/07/31 00:55:22;;;;;;;808.80;762.90;;;16.30;99.90;;;;;;4988616;28;21046;-65
2023/07/31 00:57:50;;;;;;;808.10;763.53;;;16.30;99.90;;;;;;4995325;28;20867;-65
2023/07/31 01:00:18;;;;;;;779.43;737.97;;;16.30;99.90;;;;;;4994877;28;20454;-65
2023/07/31 01:02:45;;;;;;;786.00;743.93;;;16.30;99.90;;;;;;4995171;28;21036;-65
2023/07/31 01:05:12;;;;;;;760.00;721.87;;;16.30;99.90;;;;;;4995279;28;20458;-63
2023/07/31 01:07:45;;;;;;;767.30;728.73;;;16.30;99.90;;;;;;4993603;28;20525;-65
2023/07/31 01:10:17;;;;;;;762.10;723.90;;;16.30;99.90;;;;;;4993132;28;20469;-65
2023/07/31 01:12:46;;;;;;;725.67;691.03;;;16.30;99.90;;;;;;4975520;28;20466;-66
2023/07/31 01:15:14;;;;;;;735.13;700.63;;;16.30;99.90;;;;;;4975434;28;20494;-66
2023/07/31 01:17:43;;;;;;;733.53;698.23;;;16.30;99.90;;;;;;4975536;28;20459;-66
2023/07/31 01:20:13;;;;;;;677.47;647.47;;;16.30;99.90;;;;;;4975206;28;20455;-66
2023/07/31 01:23:13;;;;;;;685.80;654.87;;;16.30;99.90;;;;;;4975590;28;20981;-66
2023/07/31 01:25:56;;;;;;;672.63;642.63;;;16.30;99.90;;;;;;4958712;28;20447;-66
2023/07/31 01:28:30;;;;;;;710.43;677.13;;;16.30;99.90;;;;;;4989140;28;20446;-66
2023/07/31 01:31:01;;;;;;;679.00;647.90;;;16.20;99.90;;;;;;4975164;28;20451;-66
2023/07/31 01:33:28;;;;;;;709.20;676.23;;;16.20;99.90;;;;;;4975152;28;20455;-66
2023/07/31 01:35:56;;;;;;;696.37;664.33;;;16.30;99.90;;;;;;4974291;28;20487;-66
2023/07/31 01:38:23;;;;;;;654.57;625.57;;;16.20;99.90;;;;;;4975190;28;20459;-67
2023/07/31 01:40:54;;;;;;;697.07;664.20;;;16.30;99.90;;;;;;4974943;28;20832;-67
2023/07/31 01:43:21;;;;;;;696.10;664.03;;;16.30;99.90;;;;;;4976249;28;20458;-67
2023/07/31 01:45:48;;;;;;;701.67;668.87;;;16.30;99.90;;;;;;4994186;28;20447;-67
2023/07/31 01:48:15;;;;;;;702.93;669.97;;;16.30;99.90;;;;;;4992391;28;20454;-67
2023/07/31 01:50:41;;;;;;;718.67;684.37;;;16.30;99.90;;;;;;4994322;28;20476;-67
2023/07/31 01:53:08;;;;;;;762.30;723.70;;;16.30;99.90;;;;;;4994465;28;20462;-67
2023/07/31 01:55:35;;;;;;;792.80;751.00;;;16.30;99.90;;;;;;4979944;28;20475;-67
2023/07/31 01:58:03;;;;;;;785.00;744.63;;;16.20;99.90;;;;;;4974940;28;20787;-67
2023/07/31 02:00:30;;;;;;;796.23;753.53;;;16.30;99.90;;;;;;4982393;28;20451;-67
2023/07/31 02:02:57;;;;;;;822.53;776.77;;;16.30;99.90;;;;;;4984365;28;20847;-67
2023/07/31 02:05:24;;;;;;;835.20;788.00;;;16.30;99.90;;;;;;4978257;28;20452;-67
2023/07/31 02:07:50;;;;;;;806.47;761.87;;;16.30;99.90;;;;;;4976483;28;20455;-67
2023/07/31 02:10:17;;;;;;;801.87;758.17;;;16.30;99.90;;;;;;4974538;28;20470;-67
2023/07/31 02:12:44;;;;;;;809.83;765.03;;;16.40;99.90;;;;;;4974766;28;20455;-67
2023/07/31 02:15:12;;;;;;;817.10;772.40;;;16.40;99.90;;;;;;4992882;28;20471;-67
2023/07/31 02:17:39;;;;;;;812.70;768.70;;;16.40;99.90;;;;;;4993943;28;20458;-67
2023/07/31 02:20:07;;;;;;;797.20;754.73;;;16.50;99.90;;;;;;4993977;28;20458;-67
2023/07/31 02:22:34;;;;;;;756.10;717.97;;;16.50;99.90;;;;;;4993868;28;20458;-67
2023/07/31 02:25:01;;;;;;;793.77;751.87;;;16.60;99.90;;;;;;4993927;28;20457;-67
2023/07/31 02:27:28;;;;;;;764.10;724.60;;;16.60;99.90;;;;;;4993825;28;20490;-67
2023/07/31 02:29:55;;;;;;;780.63;739.73;;;16.60;99.90;;;;;;4991631;28;20458;-67
2023/07/31 02:32:23;;;;;;;768.50;728.03;;;16.60;99.90;;;;;;4984945;28;20570;-67
2023/07/31 02:34:50;;;;;;;781.60;740.47;;;16.60;99.90;;;;;;4993676;28;20460;-67
2023/07/31 02:37:17;;;;;;;760.83;721.63;;;16.70;99.90;;;;;;4993770;28;20909;-67
2023/07/31 02:39:44;;;;;;;711.93;677.53;;;16.70;99.90;;;;;;4993377;28;20464;-67
2023/07/31 02:42:10;;;;;;;703.90;670.13;;;16.70;99.90;;;;;;4993469;28;20521;-67
2023/07/31 02:44:38;;;;;;;662.97;631.87;;;16.80;99.90;;;;;;4986767;28;20451;-67
2023/07/31 02:47:05;;;;;;;630.57;602.80;;;16.80;99.90;;;;;;4975076;28;20822;-67
2023/07/31 02:49:33;;;;;;;645.87;617.07;;;16.80;99.90;;;;;;4974025;28;20459;-67
2023/07/31 02:52:00;;;;;;;593.73;568.10;;;16.80;99.90;;;;;;4974087;28;20619;-67
2023/07/31 02:54:27;;;;;;;676.67;645.93;;;16.80;99.90;;;;;;4974022;28;20491;-67
2023/07/31 02:56:53;;;;;;;597.63;571.03;;;16.80;99.90;;;;;;4973792;28;20483;-67
2023/07/31 02:59:21;;;;;;;592.90;567.47;;;16.80;99.90;;;;;;4974781;28;20549;-67
2023/07/31 03:01:48;;;;;;;659.33;628.67;;;16.80;99.90;;;;;;4973721;28;20462;-67
2023/07/31 03:04:15;;;;;;;629.80;601.90;;;16.80;99.90;;;;;;4973945;28;20455;-67
2023/07/31 03:06:43;;;;;;;612.80;585.70;;;16.80;99.90;;;;;;4974979;28;20901;-67
2023/07/31 03:09:10;;;;;;;589.80;564.53;;;16.80;99.90;;;;;;4973640;28;20549;-67
2023/07/31 03:11:37;;;;;;;597.57;571.57;;;16.80;99.90;;;;;;4973537;28;20486;-67
2023/07/31 03:14:03;;;;;;;593.50;567.90;;;16.80;99.90;;;;;;4980267;28;20467;-68
2023/07/31 03:16:30;;;;;;;543.00;519.70;;;16.80;99.90;;;;;;4993282;28;20581;-67
2023/07/31 03:18:57;;;;;;;563.37;539.03;;;16.80;99.90;;;;;;4992910;28;20462;-68
2023/07/31 03:21:24;;;;;;;642.20;612.20;;;16.90;99.90;;;;;;4992853;28;20464;-67
2023/07/31 03:23:52;;;;;;;614.33;586.90;;;16.90;99.90;;;;;;4992697;28;20454;-67
2023/07/31 03:26:19;;;;;;;690.50;656.73;;;16.90;99.90;;;;;;4993000;28;20461;-67
2023/07/31 03:28:46;;;;;;;701.00;666.23;;;16.90;99.90;;;;;;4993218;28;20453;-68
2023/07/31 03:31:13;;;;;;;736.63;697.63;;;16.80;99.90;;;;;;4990669;28;20531;-68
2023/07/31 03:33:40;;;;;;;766.30;723.83;;;16.80;99.90;;;;;;4986448;28;20477;-70
2023/07/31 03:36:07;;;;;;;806.87;759.87;;;16.70;99.90;;;;;;4980795;28;21049;-69
2023/07/31 03:38:34;;;;;;;797.43;751.50;;;16.60;99.90;;;;;;4982630;28;20462;-69
2023/07/31 03:41:03;;;;;;;834.03;784.73;;;16.60;99.90;;;;;;4986153;28;20455;-69
2023/07/31 03:43:29;;;;;;;837.80;787.97;;;16.60;99.90;;;;;;4984453;28;20451;-69
2023/07/31 03:45:56;;;;;;;790.87;744.47;;;16.50;99.90;;;;;;4984065;28;20889;-70
2023/07/31 03:48:23;;;;;;;822.37;773.77;;;16.50;99.90;;;;;;4981989;28;20811;-69
2023/07/31 03:50:50;;;;;;;802.03;754.43;;;16.50;99.90;;;;;;4992619;28;20886;-68
2023/07/31 03:53:17;;;;;;;769.53;726.27;;;16.50;99.90;;;;;;4980488;28;20448;-69
2023/07/31 03:55:44;;;;;;;771.27;727.30;;;16.60;99.90;;;;;;4983536;28;20500;-69
2023/07/31 03:58:12;;;;;;;760.83;718.27;;;16.60;99.90;;;;;;4988800;28;20557;-68
2023/07/31 04:00:40;;;;;;;741.87;700.37;;;16.60;99.90;;;;;;4992827;28;20985;-69
2023/07/31 04:03:07;;;;;;;760.10;717.30;;;16.60;99.90;;;;;;4977281;28;20455;-68
2023/07/31 04:05:34;;;;;;;683.77;647.20;;;16.60;99.90;;;;;;4978990;28;20535;-69
2023/07/31 04:08:01;;;;;;;719.13;680.03;;;16.70;99.90;;;;;;4990100;28;20472;-69
2023/07/31 04:10:28;;;;;;;745.50;703.90;;;16.70;99.90;;;;;;4984304;28;20457;-69
2023/07/31 04:12:55;;;;;;;716.63;678.00;;;16.70;99.90;;;;;;4979333;28;20455;-69
2023/07/31 04:15:23;;;;;;;726.03;686.03;;;16.70;99.90;;;;;;4989282;28;20954;-69
2023/07/31 04:17:50;;;;;;;738.97;698.47;;;16.70;99.90;;;;;;4996293;28;20461;-68
2023/07/31 04:20:17;;;;;;;778.43;732.97;;;16.70;99.90;;;;;;4996056;28;20821;-68
2023/07/31 04:22:43;;;;;;;773.67;728.40;;;16.70;99.90;;;;;;4996003;28;20537;-68
2023/07/31 04:25:10;;;;;;;784.93;738.10;;;16.60;99.90;;;;;;4993359;28;20819;-68
2023/07/31 04:27:37;;;;;;;820.23;771.63;;;16.60;99.90;;;;;;4987610;28;20479;-68
2023/07/31 04:30:05;;;;;;;810.03;762.87;;;16.60;99.90;;;;;;4994343;28;20509;-68
2023/07/31 04:32:35;;;;;;;793.27;745.07;;;16.60;99.90;;;;;;4995901;28;20545;-71
2023/07/31 04:35:02;;;;;;;774.43;729.13;;;16.60;99.90;;;;;;4992326;28;20490;-69
2023/07/31 04:37:29;;;;;;;786.80;740.70;;;16.60;99.90;;;;;;4995951;28;20477;-69
2023/07/31 04:39:56;;;;;;;758.07;714.07;;;16.70;99.90;;;;;;4996071;28;20805;-69
2023/07/31 04:42:22;;;;;;;729.03;688.27;;;16.70;99.90;;;;;;4995944;28;20454;-69
2023/07/31 04:44:49;;;;;;;726.60;686.00;;;16.80;99.90;;;;;;4981983;28;20483;-69
2023/07/31 04:47:16;;;;;;;682.57;646.40;;;16.80;99.90;;;;;;4976575;28;20473;-69
2023/07/31 04:49:44;;;;;;;713.53;675.07;;;16.90;99.90;;;;;;4976039;28;20455;-69
2023/07/31 04:52:11;;;;;;;683.50;646.50;;;16.90;99.90;;;;;;4976259;28;20951;-69
2023/07/31 04:54:38;;;;;;;621.10;589.03;;;17.00;99.90;;;;;;4976089;28;20545;-69
2023/07/31 04:57:06;;;;;;;665.70;631.23;;;17.10;99.90;;;;;;4977042;28;20569;-70
2023/07/31 04:59:33;;;;;;;607.50;576.37;;;17.10;99.90;;;;;;4993668;28;20477;-70
2023/07/31 05:02:00;;;;;;;641.10;609.13;;;17.20;99.90;;;;;;4987760;28;20455;-70
2023/07/31 05:04:26;;;;;;;555.93;529.40;;;17.20;99.90;;;;;;4984446;28;20456;-69
2023/07/31 05:06:55;;;;;;;562.27;536.80;;;17.30;99.90;;;;;;4981149;28;20469;-69
2023/07/31 05:09:21;;;;;;;466.87;446.47;;;17.30;99.90;;;;;;4975896;28;20821;-69
2023/07/31 05:11:48;;;;;;;472.33;452.90;;;17.40;99.90;;;;;;4986265;28;20488;-69
2023/07/31 05:14:15;;;;;;;455.47;436.77;;;17.40;99.90;;;;;;4981030;28;20458;-69
2023/07/31 05:16:42;;;;;;;417.67;401.13;;;17.50;99.90;;;;;;4979686;28;20837;-69
2023/07/31 05:19:09;;;;;;;327.03;315.20;;;17.60;99.90;;;;;;4982018;28;20462;-69
2023/07/31 05:21:36;;;;;;;323.70;312.03;;;17.60;99.90;;;;;;4989876;28;20458;-69
2023/07/31 05:24:04;;;;;;;416.80;400.90;;;17.70;99.90;;;;;;4991756;28;20480;-68
2023/07/31 05:26:31;;;;;;;358.53;345.43;;;17.80;99.90;;;;;;4980494;28;20444;-69
2023/07/31 05:28:58;;;;;;;327.33;316.27;;;17.70;99.90;;;;;;4981246;28;20462;-68
2023/07/31 05:31:25;;;;;;;315.57;304.93;;;17.70;99.90;;;;;;4980510;28;20456;-68
2023/07/31 05:33:52;;;;;;;272.23;263.23;;;17.70;99.90;;;;;;4987511;28;20537;-68
2023/07/31 05:36:19;;;;;;;204.40;197.50;;;17.70;99.90;;;;;;4982752;28;20993;-67
2023/07/31 05:38:46;;;;;;;208.23;201.20;;;17.70;99.90;;;;;;4988704;28;20836;-68
2023/07/31 05:41:14;;;;;;;154.57;148.77;;;17.70;99.90;;;;;;4985858;28;20462;-68
2023/07/31 05:43:42;;;;;;;207.53;200.73;;;17.60;99.90;;;;;;4982190;28;20548;-67
2023/07/31 05:46:11;;;;;;;279.67;270.53;;;17.60;99.90;;;;;;4991349;28;20455;-68
2023/07/31 05:48:38;;;;;;;183.60;176.83;;;17.60;99.90;;;;;;4977400;28;20490;-68
2023/07/31 05:51:05;;;;;;;273.87;264.73;;;17.60;99.90;;;;;;4978290;28;20537;-67
2023/07/31 05:53:32;;;;;;;223.27;216.00;;;17.60;99.90;;;;;;4985981;28;20463;-68
2023/07/31 05:55:59;;;;;;;321.17;310.43;;;17.60;99.90;;;;;;4974927;28;20451;-66
2023/07/31 05:58:27;;;;;;;513.83;493.13;;;17.30;99.90;;;;;;4981651;28;20454;-65
2023/07/31 06:00:54;;;;;;;582.40;557.50;;;17.10;99.90;;;;;;4982902;28;20454;-65
2023/07/31 06:03:21;;;;;;;669.50;637.90;;;17.00;99.90;;;;;;4981631;28;20457;-66
2023/07/31 06:05:47;;;;;;;730.60;693.40;;;16.90;99.90;;;;;;4983264;28;20466;-65
2023/07/31 06:08:14;;;;;;;807.73;762.17;;;16.80;99.90;;;;;;4990392;28;20450;-65
2023/07/31 06:10:41;;;;;;;813.00;765.70;;;16.80;99.90;;;;;;4988328;28;20533;-65
2023/07/31 06:13:08;;;;;;;797.80;752.80;;;16.80;99.90;;;;;;4985217;28;20451;-65
2023/07/31 06:15:37;;;;;;;789.27;745.27;;;16.80;99.90;;;;;;4989334;28;20463;-65
2023/07/31 06:18:07;;;;;;;799.13;754.70;;;16.80;99.90;;;;;;4986889;28;20479;-65
2023/07/31 06:20:34;;;;;;;750.20;709.90;;;16.90;99.90;;;;;;4978394;28;20736;-65
2023/07/31 06:23:01;;;;;;;755.57;715.97;;;16.90;99.90;;;;;;4985973;28;20542;-65
2023/07/31 06:25:28;;;;;;;743.73;704.97;;;17.00;99.90;;;;;;4990117;28;20486;-65
2023/07/31 06:27:54;;;;;;;725.23;689.73;;;17.10;99.90;;;;;;4983479;28;20457;-65
2023/07/31 06:30:21;;;;;;;754.17;715.17;;;17.10;99.90;;;;;;4990458;28;20541;-65
2023/07/31 06:32:49;;;;;;;763.77;724.03;;;17.20;99.90;;;;;;4986536;28;20538;-65
2023/07/31 06:35:16;;;;;;;767.93;727.03;;;17.30;99.90;;;;;;4994009;28;20819;-65
2023/07/31 06:37:44;;;;;;;760.10;719.70;;;17.40;99.90;;;;;;4986734;28;20486;-65
2023/07/31 06:40:11;;;;;;;779.47;736.53;;;17.50;99.90;;;;;;4985912;28;20517;-65
2023/07/31 06:42:38;;;;;;;691.90;658.03;;;17.70;99.90;;;;;;4976562;28;22119;-65
2023/07/31 06:45:06;;;;;;;655.27;624.97;;;17.80;99.90;;;;;;4993631;28;20460;-65
2023/07/31 06:47:33;;;;;;;524.90;502.97;;;17.90;99.90;;;;;;4986879;28;20882;-66
2023/07/31 06:50:01;;;;;;;592.50;566.20;;;17.90;99.90;;;;;;4973996;28;20460;-65
2023/07/31 06:52:28;;;;;;;379.97;365.77;;;18.00;99.90;;;;;;4983216;28;20512;-66
2023/07/31 06:55:16;;;;;;;409.17;393.87;;;18.00;99.90;;;;;;4988561;28;20451;-65
2023/07/31 06:57:43;;;;;;;395.27;378.57;;;18.10;99.90;;;;;;4991090;28;20486;-65
2023/07/31 07:00:11;;;;;;;296.83;286.53;;;18.10;99.90;;;;;;4992305;28;20973;-65
2023/07/31 07:02:38;;;;;;;378.37;365.03;;;18.10;99.90;;;;;;4992785;28;20494;-65
2023/07/31 07:05:08;;;;;;;312.90;301.93;;;18.10;99.90;;;;;;4993062;28;20450;-65
2023/07/31 07:07:34;;;;;;;247.70;239.23;;;18.10;99.90;;;;;;4993309;28;20450;-65
2023/07/31 07:10:03;;;;;;;288.60;278.73;;;18.10;99.90;;;;;;4992921;28;20543;-65
2023/07/31 07:12:31;;;;;;;322.47;311.37;;;18.10;99.90;;;;;;4992957;28;20461;-65
2023/07/31 07:14:58;;;;;;;367.63;353.77;;;18.10;99.90;;;;;;4993351;28;20461;-65
2023/07/31 07:17:25;;;;;;;324.30;313.20;;;18.00;99.90;;;;;;4992866;28;20486;-65
2023/07/31 07:19:52;;;;;;;266.60;257.93;;;18.00;99.90;;;;;;4992605;28;20443;-65
2023/07/31 07:22:20;;;;;;;491.33;473.23;;;17.80;99.90;;;;;;4993049;28;20457;-65
2023/07/31 07:24:47;;;;;;;680.40;651.93;;;17.60;99.90;;;;;;4992985;28;20545;-65
2023/07/31 07:27:14;;;;;;;750.50;715.00;;;17.50;99.90;;;;;;4992907;28;20442;-65
2023/07/31 07:29:42;;;;;;;804.77;761.27;;;17.40;99.90;;;;;;4992611;28;20448;-65
2023/07/31 07:32:09;;;;;;;808.50;762.23;;;17.40;99.90;;;;;;4992712;28;20554;-65
2023/07/31 07:34:35;;;;;;;842.40;790.10;;;17.30;99.90;;;;;;4995691;28;20454;-65
2023/07/31 07:37:02;;;;;;;821.33;771.57;;;17.40;99.90;;;;;;4996944;28;20482;-65
2023/07/31 07:39:30;;;;;;;785.13;743.80;;;17.40;99.90;;;;;;4996755;28;20460;-65
2023/07/31 07:41:57;;;;;;;805.83;760.43;;;17.30;99.90;;;;;;4996675;28;20866;-65
2023/07/31 07:44:24;;;;;;;802.43;756.77;;;17.30;99.90;;;;;;4996703;28;20503;-65
2023/07/31 07:46:51;;;;;;;801.37;756.73;;;17.30;99.90;;;;;;4996518;28;20533;-65
2023/07/31 07:49:18;;;;;;;715.60;681.53;;;17.40;99.90;;;;;;4996679;28;20451;-65
2023/07/31 07:51:45;;;;;;;793.67;748.00;;;17.50;99.90;;;;;;4996373;28;20950;-65
2023/07/31 07:54:12;;;;;;;770.67;728.70;;;17.60;99.90;;;;;;4996660;28;20826;-65
2023/07/31 07:56:40;;;;;;;768.20;725.80;;;17.70;99.90;;;;;;4996500;28;20450;-65
2023/07/31 07:59:06;;;;;;;706.67;673.37;;;17.60;99.90;;;;;;4996234;28;20461;-65
2023/07/31 08:01:33;;;;;;;713.57;679.87;;;17.60;99.90;;;;;;4996096;28;20462;-65
2023/07/31 08:04:00;;;;;;;626.97;601.37;;;17.60;99.90;;;;;;4996511;28;20454;-65
2023/07/31 08:06:29;;;;;;;650.77;623.23;;;17.60;99.90;;;;;;4996380;28;20461;-65
2023/07/31 08:08:56;;;;;;;710.93;677.67;;;17.60;99.90;;;;;;4996397;28;20809;-65
2023/07/31 08:11:23;;;;;;;692.70;661.20;;;17.60;99.90;;;;;;4995823;28;20450;-65
2023/07/31 08:13:51;;;;;;;599.33;575.33;;;17.70;99.90;;;;;;4996066;28;20502;-65
2023/07/31 08:16:18;;;;;;;647.50;619.30;;;17.70;99.90;;;;;;4996340;28;20450;-65
2023/07/31 08:18:45;;;;;;;597.10;573.50;;;17.80;99.90;;;;;;4995960;28;20524;-65
2023/07/31 08:21:12;;;;;;;644.27;616.67;;;17.90;99.90;;;;;;4995783;28;20965;-65
2023/07/31 08:23:38;;;;;;;529.50;510.53;;;17.90;99.90;;;;;;4995945;28;20458;-65
2023/07/31 08:26:05;;;;;;;577.93;556.77;;;18.00;99.90;;;;;;4995873;28;20553;-65
2023/07/31 08:28:32;;;;;;;540.53;521.27;;;18.20;99.90;;;;;;4996268;28;20497;-65
2023/07/31 08:31:00;;;;;;;471.03;454.93;;;18.30;99.90;;;;;;4995663;28;20969;-65
2023/07/31 08:33:27;;;;;;;493.33;476.67;;;18.40;99.90;;;;;;4995923;28;20470;-65
2023/07/31 08:35:54;;;;;;;452.40;436.60;;;18.60;99.90;;;;;;4995871;28;20585;-65
2023/07/31 08:38:21;;;;;;;332.37;321.87;;;18.90;99.90;;;;;;4995549;28;20478;-65
2023/07/31 08:40:47;;;;;;;435.80;421.50;;;19.10;99.90;;;;;;4995509;28;20508;-65
2023/07/31 08:43:14;;;;;;;202.07;195.50;;;19.30;99.90;;;;;;4995498;28;20461;-64
2023/07/31 08:45:43;;;;;;;83.90;80.57;;;19.40;99.90;;;;;;4995111;28;20464;-65
2023/07/31 08:48:13;;;;;;;93.27;89.40;;;19.50;99.90;;;;;;4995646;28;20792;-64
2023/07/31 08:50:39;;;;;;;47.17;45.00;;;19.80;99.90;;;;;;4995451;28;20461;-64
2023/07/31 08:53:06;;;;;;;37.10;35.37;;;19.80;99.90;;;;;;4995428;28;21020;-65
2023/07/31 08:55:34;;;;;;;44.77;42.67;;;19.80;99.90;;;;;;4995292;28;21009;-65
2023/07/31 08:58:04;;;;;;;45.30;43.20;;;19.60;99.90;;;;;;4995454;28;20488;-65
2023/07/31 09:00:32;;;;;;;100.57;96.77;;;19.40;99.90;;;;;;4995353;28;20454;-65
2023/07/31 09:03:02;;;;;;;137.30;132.30;;;19.20;99.90;;;;;;4995418;28;20460;-65
2023/07/31 09:05:32;;;;;;;228.97;221.37;;;18.90;99.90;;;;;;4995294;28;20454;-65
2023/07/31 09:07:59;;;;;;;262.83;254.47;;;18.70;99.90;;;;;;4995190;28;20503;-65
2023/07/31 09:10:26;;;;;;;247.93;239.77;;;18.60;99.90;;;;;;4995077;28;20458;-65
2023/07/31 09:12:53;;;;;;;347.87;336.40;;;18.40;99.90;;;;;;4995048;28;20977;-65
2023/07/31 09:15:20;;;;;;;504.63;485.33;;;18.40;99.90;;;;;;4995037;28;20961;-65
2023/07/31 09:17:47;;;;;;;439.27;422.37;;;18.50;99.90;;;;;;4994809;28;20478;-65
2023/07/31 09:20:16;;;;;;;359.70;347.33;;;18.70;99.90;;;;;;4994786;28;20546;-65
2023/07/31 09:22:45;;;;;;;302.40;292.40;;;18.90;99.90;;;;;;4994499;28;20461;-65
2023/07/31 09:25:19;;;;;;;276.37;267.47;;;19.30;99.90;;;;;;4994846;28;20957;-65
2023/07/31 09:27:50;;;;;;;250.37;242.27;;;19.60;99.90;;;;;;4994756;28;20517;-65
2023/07/31 09:30:17;;;;;;;111.73;107.53;;;19.80;99.90;;;;;;4994465;28;20458;-65
2023/07/31 09:32:45;;;;;;;53.80;51.50;;;19.90;99.90;;;;;;4994889;28;20938;-65
2023/07/31 09:35:20;;;;;;;26.70;25.23;;;20.00;99.90;;;;;;4994609;28;20450;-65
2023/07/31 09:37:51;;;;;;;10.53;9.63;;;20.00;99.90;;;;;;4994718;28;20573;-64
2023/07/31 09:40:29;;;;;;;12.23;11.03;;;20.00;99.90;;;;;;4994530;28;20460;-65
2023/07/31 09:42:58;;;;;;;10.37;9.30;;;20.00;99.90;;;;;;4994526;28;20993;-65
2023/07/31 09:45:25;;;;;;;19.87;18.40;;;19.90;99.90;;;;;;4994607;28;20750;-65
2023/07/31 09:47:52;;;;;;;55.17;52.73;;;19.70;99.90;;;;;;4994343;28;20486;-65
2023/07/31 09:50:21;;;;;;;30.57;28.97;;;19.90;99.90;;;;;;4994351;28;20538;-65
2023/07/31 09:52:50;;;;;;;43.30;41.27;;;19.90;99.90;;;;;;4994585;28;20493;-65
2023/07/31 09:55:17;;;;;;;18.63;17.13;;;20.20;99.90;;;;;;4994407;28;20450;-65
2023/07/31 09:57:46;;;;;;;21.80;20.30;;;20.20;99.90;;;;;;4993367;28;20486;-65
2023/07/31 10:00:15;;;;;;;12.97;11.87;;;20.30;99.90;;;;;;4993843;28;20959;-65
2023/07/31 10:02:42;;;;;;;26.73;25.13;;;20.10;99.90;;;;;;4994213;28;20458;-65
2023/07/31 10:05:09;;;;;;;18.97;17.60;;;20.20;99.90;;;;;;4994343;28;20455;-64
2023/07/31 10:07:39;;;;;;;45.00;42.97;;;19.90;99.90;;;;;;4994007;28;20957;-65
2023/07/31 10:10:09;;;;;;;298.37;288.27;;;19.10;99.90;;;;;;4993830;28;20450;-65
2023/07/31 10:12:37;;;;;;;406.73;392.87;;;19.20;99.90;;;;;;4993941;28;20450;-64
2023/07/31 10:15:04;;;;;;;413.57;399.70;;;19.60;99.90;;;;;;4994104;28;20457;-64
2023/07/31 10:17:32;;;;;;;286.87;277.37;;;19.80;99.90;;;;;;4993614;28;20946;-64
2023/07/31 10:20:00;;;;;;;219.90;212.90;;;19.80;99.90;;;;;;4993622;28;20459;-64
2023/07/31 10:22:28;;;;;;;252.40;244.63;;;19.80;99.90;;;;;;4993829;28;20493;-64
2023/07/31 10:24:56;;;;;;;242.43;234.73;;;19.80;99.90;;;;;;4993859;28;20545;-64
2023/07/31 10:27:24;;;;;;;307.97;297.87;;;19.90;99.90;;;;;;4993560;28;20493;-64
2023/07/31 10:29:53;;;;;;;136.20;131.30;;;20.30;99.90;;;;;;4993464;28;20455;-64
2023/07/31 10:32:21;;;;;;;188.27;182.00;;;20.70;99.90;;;;;;4993819;28;20451;-64
2023/07/31 10:34:50;;;;;;;23.20;21.80;;;20.80;99.90;;;;;;4993723;28;20454;-64
2023/07/31 10:37:24;;;;;;;10.30;8.53;;;20.70;99.90;;;;;;4993565;28;20536;-64
2023/07/31 10:39:59;;;;;;;11.10;10.00;;;20.60;99.90;;;;;;4993163;28;20458;-64
2023/07/31 10:42:32;;;;;;;64.38;61.55;;;20.30;99.90;;;;;;4992268;28;20456;-64
2023/07/31 10:45:00;;;;;;;10.10;9.30;;;20.40;99.90;;;;;;4993960;28;20291;-64
2023/07/31 10:47:27;;;;;;;8.00;5.43;;;20.40;99.90;;;;;;4992288;28;20461;-64
2023/07/31 10:49:54;;;;;;;7.00;5.33;;;20.30;99.90;;;;;;4993233;28;20458;-64
2023/07/31 10:52:26;;;;;;;9.70;4.60;;;20.60;99.90;;;;;;4993017;28;20453;-64
2023/07/31 10:55:17;;;;;;;5.30;2.67;;;20.60;99.90;;;;;;4992952;28;20450;-65
2023/07/31 10:57:48;;;;;;;4.97;2.23;;;20.50;99.90;;;;;;4992740;28;20951;-65
2023/07/31 11:00:20;;;;;;;5.57;2.00;;;20.90;99.90;;;;;;4992750;28;20554;-66
2023/07/31 11:02:58;;;;;;;4.33;2.00;;;21.20;99.90;;;;;;4993124;28;20914;-66
2023/07/31 11:05:45;;;;;;;4.50;2.00;;;21.40;98.60;;;;;;4993143;28;20454;-66
2023/07/31 11:08:17;;;;;;;5.93;1.67;;;21.60;97.60;;;;;;4992370;28;20525;-66
2023/07/31 11:10:45;;;;;;;4.57;1.77;;;22.10;96.00;;;;;;4992582;28;20473;-66
2023/07/31 11:13:13;;;;;;;9.30;1.80;;;22.20;96.00;;;;;;4992526;28;20532;-66
2023/07/31 11:15:41;;;;;;;4.70;1.60;;;22.40;96.10;;;;;;4990879;28;20455;-67
2023/07/31 11:18:07;;;;;;;6.30;1.40;;;22.90;96.30;;;;;;4991159;28;20481;-67
2023/07/31 11:20:35;;;;;;;4.93;1.60;;;22.80;92.80;;;;;;4991747;28;20454;-67
2023/07/31 11:23:03;;;;;;;4.20;1.37;;;22.70;92.80;;;;;;4992418;28;20458;-67
2023/07/31 11:25:31;;;;;;;5.23;1.50;;;22.40;92.60;;;;;;4992533;28;20454;-66
2023/07/31 11:27:58;;;;;;;4.40;1.30;;;22.90;92.90;;;;;;4992465;28;20443;-67
2023/07/31 11:30:27;;;;;;;5.73;1.60;;;23.70;91.30;;;;;;4993080;28;20804;-67
2023/07/31 11:32:53;;;;;;;6.20;1.43;;;23.60;89.30;;;;;;4993234;28;20545;-67
2023/07/31 11:35:20;;;;;;;5.80;1.33;;;23.20;88.90;;;;;;4993573;28;20454;-67
2023/07/31 11:37:48;;;;;;;7.47;1.50;;;23.10;88.90;;;;;;4993038;28;20458;-67
2023/07/31 11:40:15;;;;;;;4.80;1.20;;;23.20;89.00;;;;;;4992742;28;20459;-67
2023/07/31 11:42:42;;;;;;;6.77;2.43;;;23.30;89.10;;;;;;4993193;28;20451;-66
2023/07/31 11:45:10;;;;;;;4.40;1.40;;;22.90;88.70;;;;;;4993259;28;20454;-66
2023/07/31 11:47:39;;;;;;;4.20;1.50;;;23.20;89.00;;;;;;4993175;28;20537;-67
2023/07/31 11:50:10;;;;;;;4.53;1.40;;;23.60;86.00;;;;;;4992901;28;20447;-66
2023/07/31 11:52:41;;;;;;;6.90;1.50;;;24.20;82.00;;;;;;4993050;28;20458;-66
2023/07/31 11:55:10;;;;;;;4.93;1.80;;;24.50;82.30;;;;;;4993430;28;20458;-67
2023/07/31 11:57:39;;;;;;;4.90;1.47;;;23.40;81.30;;;;;;4993266;28;20951;-67
2023/07/31 12:00:08;;;;;;;4.77;1.60;;;22.60;83.30;;;;;;4992816;28;20492;-68
2023/07/31 12:02:35;;;;;;;5.00;1.60;;;22.40;89.00;;;;;;4992827;28;20456;-66
2023/07/31 12:05:04;;;;;;;5.77;2.17;;;22.30;88.20;;;;;;4993153;28;20818;-67
2023/07/31 12:07:48;;;;;;;5.43;1.90;;;21.80;87.70;;;;;;4992300;28;20545;-67
2023/07/31 12:10:28;;;;;;;6.10;2.03;;;21.80;87.70;;;;;;4992573;28;20207;-67
2023/07/31 12:13:03;;;;;;;6.95;2.30;;;21.80;87.70;;;;;;4991989;28;20495;-66
2023/07/31 12:15:33;;;;;;;7.83;2.33;;;22.10;88.10;;;;;;4992812;28;20202;-66
2023/07/31 12:18:01;;;;;;;5.80;2.40;;;22.40;88.30;;;;;;4992626;28;20502;-66